Terminal Aerodrome Forecast
Issued by NWS

Home | Current Version | Previous Version | Text Only | Print | Product List | Glossary On
Versions: 1 2 3 4 5 6 7 8 9 10 11 12 13 14 15
000
FTUS43 KGRB 271100
TAFMTW
TAF
KMTW 271130Z 2712/2812 36006KT P6SM BKN100
      TEMPO 2712/2715 -SHRA SCT040 BKN090
     FM271600 32005KT P6SM SCT040 BKN140
     FM271800 03006KT P6SM SCT050 SCT200
     FM280000 VRB03KT P6SM SCT250
      TEMPO 2808/2812 4SM BR=

USA.gov is the U.S. government's official web portal to all federal, state and local government web resources and services.